KMVE/MVE METAR and TAF weather

Enter ICAO airport designator
Station Type Date Time Source
KMVE METAR 2019/08/22 09:56 UTC NOAA

KMVE 220956Z AUTO 00000KT 10SM CLR 12/09 A3008 RMK AO2


Station Type Date Time Source
KMVE Decoded METAR 2019/08/22 09:56 UTC NOAA

Station name not available
Aug 22, 2019 - 05:56 AM EDT / 2019.08.22 0956 UTC
Wind: Calm:0
Visibility: 10 mile(s):0
Sky conditions: clear
Temperature: 53 F (12 C)
Dew Point: 48 F (9 C)
Relative Humidity: 81%
Pressure (altimeter): 30.08 in. Hg (1018 hPa)
ob: KMVE 220956Z AUTO 00000KT 10SM CLR 12/09 A3008 RMK AO2
cycle: 10

Station Type Date Time Source
KMVE TAF UTC NOAA

Error!

Example: see airport list